sensor_id;sensor_type;location;lat;lon;timestamp;temperature;humidity
9118;DHT22;4594;50.994;7.126;2024-01-06T00:01:49;10.40;58.20
9118;DHT22;4594;50.994;7.126;2024-01-06T00:04:15;10.50;58.20
9118;DHT22;4594;50.994;7.126;2024-01-06T00:06:41;10.40;58.20
9118;DHT22;4594;50.994;7.126;2024-01-06T00:09:06;10.40;58.30
9118;DHT22;4594;50.994;7.126;2024-01-06T00:11:32;10.50;58.30
9118;DHT22;4594;50.994;7.126;2024-01-06T00:13:58;10.50;58.30
9118;DHT22;4594;50.994;7.126;2024-01-06T00:16:24;10.50;58.20
9118;DHT22;4594;50.994;7.126;2024-01-06T00:18:50;10.50;58.20
9118;DHT22;4594;50.994;7.126;2024-01-06T00:21:15;10.50;58.20
9118;DHT22;4594;50.994;7.126;2024-01-06T00:23:41;10.50;58.30
9118;DHT22;4594;50.994;7.126;2024-01-06T00:26:07;10.50;58.30
9118;DHT22;4594;50.994;7.126;2024-01-06T00:28:34;10.40;58.30
9118;DHT22;4594;50.994;7.126;2024-01-06T00:30:59;10.50;58.30
9118;DHT22;4594;50.994;7.126;2024-01-06T00:33:25;10.50;58.30
9118;DHT22;4594;50.994;7.126;2024-01-06T00:35:51;10.50;58.30
9118;DHT22;4594;50.994;7.126;2024-01-06T00:38:16;10.50;58.40
9118;DHT22;4594;50.994;7.126;2024-01-06T00:40:42;10.50;58.40
9118;DHT22;4594;50.994;7.126;2024-01-06T00:43:08;10.50;58.70
9118;DHT22;4594;50.994;7.126;2024-01-06T00:45:33;10.60;58.50
9118;DHT22;4594;50.994;7.126;2024-01-06T00:47:59;10.50;58.40
9118;DHT22;4594;50.994;7.126;2024-01-06T00:50:25;10.50;58.40
9118;DHT22;4594;50.994;7.126;2024-01-06T00:52:50;10.50;58.40
9118;DHT22;4594;50.994;7.126;2024-01-06T00:55:18;10.40;58.40
9118;DHT22;4594;50.994;7.126;2024-01-06T00:57:44;10.40;58.40
9118;DHT22;4594;50.994;7.126;2024-01-06T01:00:11;10.40;58.40
9118;DHT22;4594;50.994;7.126;2024-01-06T01:02:37;10.40;58.40
9118;DHT22;4594;50.994;7.126;2024-01-06T01:05:02;10.40;58.70
9118;DHT22;4594;50.994;7.126;2024-01-06T01:07:28;10.40;58.50
9118;DHT22;4594;50.994;7.126;2024-01-06T01:09:56;10.40;58.50
9118;DHT22;4594;50.994;7.126;2024-01-06T01:12:23;10.40;58.60
9118;DHT22;4594;50.994;7.126;2024-01-06T01:14:49;10.40;58.60
9118;DHT22;4594;50.994;7.126;2024-01-06T01:17:16;10.40;58.70
9118;DHT22;4594;50.994;7.126;2024-01-06T01:19:42;10.40;58.70
9118;DHT22;4594;50.994;7.126;2024-01-06T01:22:07;10.40;58.80
9118;DHT22;4594;50.994;7.126;2024-01-06T01:24:33;10.30;58.70
9118;DHT22;4594;50.994;7.126;2024-01-06T01:26:59;10.30;58.70
9118;DHT22;4594;50.994;7.126;2024-01-06T01:29:24;10.30;58.80
9118;DHT22;4594;50.994;7.126;2024-01-06T01:31:51;10.30;58.90
9118;DHT22;4594;50.994;7.126;2024-01-06T01:34:17;10.30;58.90
9118;DHT22;4594;50.994;7.126;2024-01-06T01:36:42;10.30;58.90
9118;DHT22;4594;50.994;7.126;2024-01-06T01:39:08;10.30;58.90
9118;DHT22;4594;50.994;7.126;2024-01-06T01:41:35;10.30;59.00
9118;DHT22;4594;50.994;7.126;2024-01-06T01:44:01;10.30;59.00
9118;DHT22;4594;50.994;7.126;2024-01-06T01:46:27;10.30;59.00
9118;DHT22;4594;50.994;7.126;2024-01-06T01:48:55;10.30;59.10
9118;DHT22;4594;50.994;7.126;2024-01-06T01:51:23;10.30;59.10
9118;DHT22;4594;50.994;7.126;2024-01-06T01:53:52;10.30;59.10
9118;DHT22;4594;50.994;7.126;2024-01-06T01:56:19;10.30;59.20
9118;DHT22;4594;50.994;7.126;2024-01-06T01:58:46;10.30;59.20
9118;DHT22;4594;50.994;7.126;2024-01-06T02:01:13;10.30;59.20
9118;DHT22;4594;50.994;7.126;2024-01-06T02:03:43;10.30;59.30
9118;DHT22;4594;50.994;7.126;2024-01-06T02:06:10;10.30;59.10
9118;DHT22;4594;50.994;7.126;2024-01-06T02:08:36;10.30;59.40
9118;DHT22;4594;50.994;7.126;2024-01-06T02:11:03;10.30;59.40
9118;DHT22;4594;50.994;7.126;2024-01-06T02:13:36;10.30;59.40
9118;DHT22;4594;50.994;7.126;2024-01-06T02:16:04;10.30;58.90
9118;DHT22;4594;50.994;7.126;2024-01-06T02:18:33;10.30;59.50
9118;DHT22;4594;50.994;7.126;2024-01-06T02:21:01;10.30;59.30
9118;DHT22;4594;50.994;7.126;2024-01-06T02:23:27;10.30;59.50
9118;DHT22;4594;50.994;7.126;2024-01-06T02:25:54;10.30;59.60
9118;DHT22;4594;50.994;7.126;2024-01-06T02:28:20;10.30;59.60
9118;DHT22;4594;50.994;7.126;2024-01-06T02:30:46;10.30;59.60
9118;DHT22;4594;50.994;7.126;2024-01-06T02:33:12;10.30;59.70
9118;DHT22;4594;50.994;7.126;2024-01-06T02:35:38;10.30;59.70
9118;DHT22;4594;50.994;7.126;2024-01-06T02:38:06;10.30;59.70
9118;DHT22;4594;50.994;7.126;2024-01-06T02:40:32;10.30;59.70
9118;DHT22;4594;50.994;7.126;2024-01-06T02:42:58;10.30;59.80
9118;DHT22;4594;50.994;7.126;2024-01-06T02:45:24;10.30;59.80
9118;DHT22;4594;50.994;7.126;2024-01-06T02:47:50;10.30;59.80
9118;DHT22;4594;50.994;7.126;2024-01-06T02:50:16;10.30;59.90
9118;DHT22;4594;50.994;7.126;2024-01-06T02:52:41;10.30;59.90
9118;DHT22;4594;50.994;7.126;2024-01-06T02:55:07;10.30;59.90
9118;DHT22;4594;50.994;7.126;2024-01-06T02:57:33;10.30;59.90
9118;DHT22;4594;50.994;7.126;2024-01-06T02:59:59;10.30;59.90
9118;DHT22;4594;50.994;7.126;2024-01-06T03:02:24;10.30;59.90
9118;DHT22;4594;50.994;7.126;2024-01-06T03:04:50;10.30;59.90
9118;DHT22;4594;50.994;7.126;2024-01-06T03:07:16;10.30;59.90
9118;DHT22;4594;50.994;7.126;2024-01-06T03:09:41;10.30;59.90
9118;DHT22;4594;50.994;7.126;2024-01-06T03:12:07;10.30;59.90
9118;DHT22;4594;50.994;7.126;2024-01-06T03:14:36;10.30;59.90
9118;DHT22;4594;50.994;7.126;2024-01-06T03:17:02;10.30;59.60
9118;DHT22;4594;50.994;7.126;2024-01-06T03:19:30;10.30;59.90
9118;DHT22;4594;50.994;7.126;2024-01-06T03:21:56;10.30;60.00
9118;DHT22;4594;50.994;7.126;2024-01-06T03:24:23;10.30;60.00
9118;DHT22;4594;50.994;7.126;2024-01-06T03:26:51;10.30;59.90
9118;DHT22;4594;50.994;7.126;2024-01-06T03:29:16;10.30;60.10
9118;DHT22;4594;50.994;7.126;2024-01-06T03:31:45;10.40;60.20
9118;DHT22;4594;50.994;7.126;2024-01-06T03:34:12;10.40;60.30
9118;DHT22;4594;50.994;7.126;2024-01-06T03:36:38;10.40;60.30
9118;DHT22;4594;50.994;7.126;2024-01-06T03:39:06;10.40;60.30
9118;DHT22;4594;50.994;7.126;2024-01-06T03:41:32;10.40;60.40
9118;DHT22;4594;50.994;7.126;2024-01-06T03:43:58;10.40;60.40
9118;DHT22;4594;50.994;7.126;2024-01-06T03:46:24;10.40;60.40
9118;DHT22;4594;50.994;7.126;2024-01-06T03:48:49;10.40;60.50
9118;DHT22;4594;50.994;7.126;2024-01-06T03:51:15;10.40;60.50
9118;DHT22;4594;50.994;7.126;2024-01-06T03:53:41;10.40;60.40
9118;DHT22;4594;50.994;7.126;2024-01-06T03:56:07;10.40;60.50
9118;DHT22;4594;50.994;7.126;2024-01-06T03:58:33;10.30;60.30
9118;DHT22;4594;50.994;7.126;2024-01-06T04:00:59;10.40;60.50
9118;DHT22;4594;50.994;7.126;2024-01-06T04:03:24;10.40;60.40
9118;DHT22;4594;50.994;7.126;2024-01-06T04:05:50;10.40;60.50
9118;DHT22;4594;50.994;7.126;2024-01-06T04:08:16;10.40;60.50
9118;DHT22;4594;50.994;7.126;2024-01-06T04:10:42;10.40;60.50
9118;DHT22;4594;50.994;7.126;2024-01-06T04:13:08;10.40;60.30
9118;DHT22;4594;50.994;7.126;2024-01-06T04:15:34;10.40;60.40
9118;DHT22;4594;50.994;7.126;2024-01-06T04:18:04;10.40;60.40
9118;DHT22;4594;50.994;7.126;2024-01-06T04:20:31;10.40;60.40
9118;DHT22;4594;50.994;7.126;2024-01-06T04:22:57;10.50;60.70
9118;DHT22;4594;50.994;7.126;2024-01-06T04:25:24;10.40;60.60
9118;DHT22;4594;50.994;7.126;2024-01-06T04:27:49;10.50;60.70
9118;DHT22;4594;50.994;7.126;2024-01-06T04:30:16;10.50;60.80
9118;DHT22;4594;50.994;7.126;2024-01-06T04:32:42;10.50;60.80
9118;DHT22;4594;50.994;7.126;2024-01-06T04:35:09;10.50;60.80
9118;DHT22;4594;50.994;7.126;2024-01-06T04:37:35;10.50;60.70
9118;DHT22;4594;50.994;7.126;2024-01-06T04:40:01;10.50;60.70
9118;DHT22;4594;50.994;7.126;2024-01-06T04:42:26;10.50;60.70
9118;DHT22;4594;50.994;7.126;2024-01-06T04:44:52;10.50;60.70
9118;DHT22;4594;50.994;7.126;2024-01-06T04:47:18;10.50;60.80
9118;DHT22;4594;50.994;7.126;2024-01-06T04:49:44;10.50;60.80
9118;DHT22;4594;50.994;7.126;2024-01-06T04:52:10;10.50;60.80
9118;DHT22;4594;50.994;7.126;2024-01-06T04:54:36;10.50;60.80
9118;DHT22;4594;50.994;7.126;2024-01-06T04:57:01;10.50;60.80
9118;DHT22;4594;50.994;7.126;2024-01-06T04:59:27;10.50;60.80
9118;DHT22;4594;50.994;7.126;2024-01-06T05:01:53;10.50;60.80
9118;DHT22;4594;50.994;7.126;2024-01-06T05:04:19;10.50;60.80
9118;DHT22;4594;50.994;7.126;2024-01-06T05:06:45;10.50;60.80
9118;DHT22;4594;50.994;7.126;2024-01-06T05:09:11;10.50;60.70
9118;DHT22;4594;50.994;7.126;2024-01-06T05:11:36;10.50;60.70
9118;DHT22;4594;50.994;7.126;2024-01-06T05:14:02;10.50;60.80
9118;DHT22;4594;50.994;7.126;2024-01-06T05:16:28;10.50;60.80
9118;DHT22;4594;50.994;7.126;2024-01-06T05:18:54;10.50;60.90
9118;DHT22;4594;50.994;7.126;2024-01-06T05:21:20;10.50;60.90
9118;DHT22;4594;50.994;7.126;2024-01-06T05:23:46;10.50;60.80
9118;DHT22;4594;50.994;7.126;2024-01-06T05:26:11;10.50;60.70
9118;DHT22;4594;50.994;7.126;2024-01-06T05:28:39;10.50;60.60
9118;DHT22;4594;50.994;7.126;2024-01-06T05:31:05;10.50;60.60
9118;DHT22;4594;50.994;7.126;2024-01-06T05:33:31;10.50;60.60
9118;DHT22;4594;50.994;7.126;2024-01-06T05:35:57;10.50;60.70
9118;DHT22;4594;50.994;7.126;2024-01-06T05:38:23;10.50;60.60
9118;DHT22;4594;50.994;7.126;2024-01-06T05:40:48;10.50;60.50
9118;DHT22;4594;50.994;7.126;2024-01-06T05:43:14;10.50;60.40
9118;DHT22;4594;50.994;7.126;2024-01-06T05:45:40;10.50;60.20
9118;DHT22;4594;50.994;7.126;2024-01-06T05:48:10;10.50;59.90
9118;DHT22;4594;50.994;7.126;2024-01-06T05:50:39;10.50;59.30
9118;DHT22;4594;50.994;7.126;2024-01-06T05:53:06;10.40;59.10
9118;DHT22;4594;50.994;7.126;2024-01-06T05:55:32;10.40;59.30
9118;DHT22;4594;50.994;7.126;2024-01-06T05:57:58;10.40;59.20
9118;DHT22;4594;50.994;7.126;2024-01-06T06:00:23;10.30;59.00
9118;DHT22;4594;50.994;7.126;2024-01-06T06:02:49;10.30;59.00
9118;DHT22;4594;50.994;7.126;2024-01-06T06:05:15;10.30;58.90
9118;DHT22;4594;50.994;7.126;2024-01-06T06:07:40;10.20;58.80
9118;DHT22;4594;50.994;7.126;2024-01-06T06:10:08;10.20;58.80
9118;DHT22;4594;50.994;7.126;2024-01-06T06:12:35;10.20;58.60
9118;DHT22;4594;50.994;7.126;2024-01-06T06:15:02;10.10;58.50
9118;DHT22;4594;50.994;7.126;2024-01-06T06:17:30;10.20;58.60
9118;DHT22;4594;50.994;7.126;2024-01-06T06:19:57;10.00;58.30
9118;DHT22;4594;50.994;7.126;2024-01-06T06:22:23;10.00;58.30
9118;DHT22;4594;50.994;7.126;2024-01-06T06:24:51;10.00;58.30
9118;DHT22;4594;50.994;7.126;2024-01-06T06:27:17;9.90;59.00
9118;DHT22;4594;50.994;7.126;2024-01-06T06:29:42;9.90;59.00
9118;DHT22;4594;50.994;7.126;2024-01-06T06:32:08;9.90;58.90
9118;DHT22;4594;50.994;7.126;2024-01-06T06:34:34;9.80;58.80
9118;DHT22;4594;50.994;7.126;2024-01-06T06:36:59;9.80;58.90
9118;DHT22;4594;50.994;7.126;2024-01-06T06:39:25;9.70;59.00
9118;DHT22;4594;50.994;7.126;2024-01-06T06:41:52;9.70;59.10
9118;DHT22;4594;50.994;7.126;2024-01-06T06:44:18;9.70;59.20
9118;DHT22;4594;50.994;7.126;2024-01-06T06:46:43;9.70;59.30
9118;DHT22;4594;50.994;7.126;2024-01-06T06:49:09;9.70;59.30
9118;DHT22;4594;50.994;7.126;2024-01-06T06:51:35;9.60;59.20
9118;DHT22;4594;50.994;7.126;2024-01-06T06:54:00;9.60;59.20
9118;DHT22;4594;50.994;7.126;2024-01-06T06:56:26;9.60;59.20
9118;DHT22;4594;50.994;7.126;2024-01-06T06:58:52;9.60;59.20
9118;DHT22;4594;50.994;7.126;2024-01-06T07:01:18;9.50;59.10
9118;DHT22;4594;50.994;7.126;2024-01-06T07:03:43;9.50;59.20
9118;DHT22;4594;50.994;7.126;2024-01-06T07:06:12;9.50;59.10
9118;DHT22;4594;50.994;7.126;2024-01-06T07:08:39;9.50;58.90
9118;DHT22;4594;50.994;7.126;2024-01-06T07:11:07;9.40;59.20
9118;DHT22;4594;50.994;7.126;2024-01-06T07:13:33;9.40;59.20
9118;DHT22;4594;50.994;7.126;2024-01-06T07:15:59;9.40;59.30
9118;DHT22;4594;50.994;7.126;2024-01-06T07:18:24;9.40;59.40
9118;DHT22;4594;50.994;7.126;2024-01-06T07:20:51;9.40;59.40
9118;DHT22;4594;50.994;7.126;2024-01-06T07:23:16;9.40;59.40
9118;DHT22;4594;50.994;7.126;2024-01-06T07:25:42;9.40;59.50
9118;DHT22;4594;50.994;7.126;2024-01-06T07:28:08;9.40;59.50
9118;DHT22;4594;50.994;7.126;2024-01-06T07:30:33;9.40;59.50
9118;DHT22;4594;50.994;7.126;2024-01-06T07:32:59;9.40;59.60
9118;DHT22;4594;50.994;7.126;2024-01-06T07:35:25;9.30;59.50
9118;DHT22;4594;50.994;7.126;2024-01-06T07:37:51;9.30;59.50
9118;DHT22;4594;50.994;7.126;2024-01-06T07:40:17;9.30;59.50
9118;DHT22;4594;50.994;7.126;2024-01-06T07:42:43;9.30;59.50
9118;DHT22;4594;50.994;7.126;2024-01-06T07:45:09;9.30;59.50
9118;DHT22;4594;50.994;7.126;2024-01-06T07:47:35;9.30;59.50
9118;DHT22;4594;50.994;7.126;2024-01-06T07:50:01;9.30;59.60
9118;DHT22;4594;50.994;7.126;2024-01-06T07:52:27;9.30;59.60
9118;DHT22;4594;50.994;7.126;2024-01-06T07:54:53;9.30;59.70
9118;DHT22;4594;50.994;7.126;2024-01-06T07:57:18;9.30;59.70
9118;DHT22;4594;50.994;7.126;2024-01-06T07:59:45;9.30;59.70
9118;DHT22;4594;50.994;7.126;2024-01-06T08:02:10;9.30;59.70
9118;DHT22;4594;50.994;7.126;2024-01-06T08:04:36;9.50;59.90
9118;DHT22;4594;50.994;7.126;2024-01-06T08:07:02;9.30;59.80
9118;DHT22;4594;50.994;7.126;2024-01-06T08:09:28;9.30;59.80
9118;DHT22;4594;50.994;7.126;2024-01-06T08:11:53;9.30;59.90
9118;DHT22;4594;50.994;7.126;2024-01-06T08:14:19;9.30;59.80
9118;DHT22;4594;50.994;7.126;2024-01-06T08:16:45;9.40;59.90
9118;DHT22;4594;50.994;7.126;2024-01-06T08:19:11;9.30;59.90
9118;DHT22;4594;50.994;7.126;2024-01-06T08:21:37;9.50;60.00
9118;DHT22;4594;50.994;7.126;2024-01-06T08:24:03;9.30;59.90
9118;DHT22;4594;50.994;7.126;2024-01-06T08:26:29;9.30;59.90
9118;DHT22;4594;50.994;7.126;2024-01-06T08:28:54;9.30;60.00
9118;DHT22;4594;50.994;7.126;2024-01-06T08:31:20;9.30;59.90
9118;DHT22;4594;50.994;7.126;2024-01-06T08:33:47;9.30;60.00
9118;DHT22;4594;50.994;7.126;2024-01-06T08:36:13;9.30;60.10
9118;DHT22;4594;50.994;7.126;2024-01-06T08:38:38;9.30;60.10
9118;DHT22;4594;50.994;7.126;2024-01-06T08:41:04;9.30;60.10
9118;DHT22;4594;50.994;7.126;2024-01-06T08:43:30;9.30;60.10
9118;DHT22;4594;50.994;7.126;2024-01-06T08:45:55;9.30;60.10
9118;DHT22;4594;50.994;7.126;2024-01-06T08:48:21;9.30;60.00
9118;DHT22;4594;50.994;7.126;2024-01-06T08:50:47;9.40;60.20
9118;DHT22;4594;50.994;7.126;2024-01-06T08:53:13;9.40;60.30
9118;DHT22;4594;50.994;7.126;2024-01-06T08:55:39;9.40;60.30
9118;DHT22;4594;50.994;7.126;2024-01-06T08:58:05;9.40;60.40
9118;DHT22;4594;50.994;7.126;2024-01-06T09:00:30;9.40;60.40
9118;DHT22;4594;50.994;7.126;2024-01-06T09:02:56;9.40;60.40
9118;DHT22;4594;50.994;7.126;2024-01-06T09:05:22;9.40;60.40
9118;DHT22;4594;50.994;7.126;2024-01-06T09:07:48;9.40;60.40
9118;DHT22;4594;50.994;7.126;2024-01-06T09:10:16;9.40;60.40
9118;DHT22;4594;50.994;7.126;2024-01-06T09:12:42;9.40;60.40
9118;DHT22;4594;50.994;7.126;2024-01-06T09:15:08;9.40;60.50
9118;DHT22;4594;50.994;7.126;2024-01-06T09:17:34;9.40;60.40
9118;DHT22;4594;50.994;7.126;2024-01-06T09:20:00;9.40;60.30
9118;DHT22;4594;50.994;7.126;2024-01-06T09:22:27;9.40;60.30
9118;DHT22;4594;50.994;7.126;2024-01-06T09:24:52;9.50;60.40
9118;DHT22;4594;50.994;7.126;2024-01-06T09:27:19;9.50;60.40
9118;DHT22;4594;50.994;7.126;2024-01-06T09:29:45;9.50;60.40
9118;DHT22;4594;50.994;7.126;2024-01-06T09:32:11;9.50;60.50
9118;DHT22;4594;50.994;7.126;2024-01-06T09:34:38;9.50;60.50
9118;DHT22;4594;50.994;7.126;2024-01-06T09:37:04;9.50;60.50
9118;DHT22;4594;50.994;7.126;2024-01-06T09:39:30;9.50;60.60
9118;DHT22;4594;50.994;7.126;2024-01-06T09:41:57;9.50;60.60
9118;DHT22;4594;50.994;7.126;2024-01-06T09:44:23;9.50;60.50
9118;DHT22;4594;50.994;7.126;2024-01-06T09:46:50;9.50;60.60
9118;DHT22;4594;50.994;7.126;2024-01-06T09:49:19;9.50;60.60
9118;DHT22;4594;50.994;7.126;2024-01-06T09:51:49;9.60;60.20
9118;DHT22;4594;50.994;7.126;2024-01-06T09:54:23;9.60;60.50
9118;DHT22;4594;50.994;7.126;2024-01-06T09:56:51;9.60;59.90
9118;DHT22;4594;50.994;7.126;2024-01-06T09:59:18;9.60;60.40
9118;DHT22;4594;50.994;7.126;2024-01-06T10:01:46;9.80;60.50
9118;DHT22;4594;50.994;7.126;2024-01-06T10:04:12;10.10;59.70
9118;DHT22;4594;50.994;7.126;2024-01-06T10:06:38;9.60;60.20
9118;DHT22;4594;50.994;7.126;2024-01-06T10:09:04;9.60;60.10
9118;DHT22;4594;50.994;7.126;2024-01-06T10:11:30;9.60;60.20
9118;DHT22;4594;50.994;7.126;2024-01-06T10:13:56;9.60;60.30
9118;DHT22;4594;50.994;7.126;2024-01-06T10:16:22;9.60;60.40
9118;DHT22;4594;50.994;7.126;2024-01-06T10:18:48;9.60;60.40
9118;DHT22;4594;50.994;7.126;2024-01-06T10:21:13;9.60;60.30
9118;DHT22;4594;50.994;7.126;2024-01-06T10:23:43;9.60;60.10
9118;DHT22;4594;50.994;7.126;2024-01-06T10:26:13;9.60;60.00
9118;DHT22;4594;50.994;7.126;2024-01-06T10:28:39;9.60;59.70
9118;DHT22;4594;50.994;7.126;2024-01-06T10:31:08;9.60;59.90
9118;DHT22;4594;50.994;7.126;2024-01-06T10:33:33;9.60;59.70
9118;DHT22;4594;50.994;7.126;2024-01-06T10:36:00;9.50;59.90
9118;DHT22;4594;50.994;7.126;2024-01-06T10:38:26;9.50;59.80
9118;DHT22;4594;50.994;7.126;2024-01-06T10:43:25;9.50;59.50
9118;DHT22;4594;50.994;7.126;2024-01-06T10:45:56;9.50;59.60
9118;DHT22;4594;50.994;7.126;2024-01-06T10:48:25;9.50;59.80
9118;DHT22;4594;50.994;7.126;2024-01-06T10:50:52;9.50;59.80
9118;DHT22;4594;50.994;7.126;2024-01-06T10:53:20;9.50;59.80
9118;DHT22;4594;50.994;7.126;2024-01-06T10:55:49;9.50;59.90
9118;DHT22;4594;50.994;7.126;2024-01-06T10:58:18;9.50;59.80
9118;DHT22;4594;50.994;7.126;2024-01-06T11:00:45;9.50;60.00
9118;DHT22;4594;50.994;7.126;2024-01-06T11:03:13;9.50;60.10
9118;DHT22;4594;50.994;7.126;2024-01-06T11:05:43;9.50;60.10
9118;DHT22;4594;50.994;7.126;2024-01-06T11:08:10;9.50;59.70
9118;DHT22;4594;50.994;7.126;2024-01-06T11:10:37;9.50;60.10
9118;DHT22;4594;50.994;7.126;2024-01-06T11:13:14;9.50;59.80
9118;DHT22;4594;50.994;7.126;2024-01-06T11:15:52;9.50;58.90
9118;DHT22;4594;50.994;7.126;2024-01-06T11:18:38;9.50;59.10
9118;DHT22;4594;50.994;7.126;2024-01-06T11:23:39;9.50;59.00
9118;DHT22;4594;50.994;7.126;2024-01-06T11:26:06;9.50;59.80
9118;DHT22;4594;50.994;7.126;2024-01-06T11:28:46;9.50;59.70
9118;DHT22;4594;50.994;7.126;2024-01-06T11:31:13;9.40;58.70
9118;DHT22;4594;50.994;7.126;2024-01-06T11:33:46;9.40;59.60
9118;DHT22;4594;50.994;7.126;2024-01-06T11:36:15;9.40;58.90
9118;DHT22;4594;50.994;7.126;2024-01-06T11:38:41;9.40;59.30
9118;DHT22;4594;50.994;7.126;2024-01-06T11:41:07;9.40;59.40
9118;DHT22;4594;50.994;7.126;2024-01-06T11:43:37;9.40;59.40
9118;DHT22;4594;50.994;7.126;2024-01-06T11:46:06;9.40;58.90
9118;DHT22;4594;50.994;7.126;2024-01-06T11:48:33;9.70;59.50
9118;DHT22;4594;50.994;7.126;2024-01-06T11:50:59;9.40;59.40
9118;DHT22;4594;50.994;7.126;2024-01-06T11:53:28;10.10;59.10
9118;DHT22;4594;50.994;7.126;2024-01-06T11:55:54;9.30;59.00
9118;DHT22;4594;50.994;7.126;2024-01-06T11:58:21;9.30;59.40
9118;DHT22;4594;50.994;7.126;2024-01-06T12:00:56;9.30;59.30
9118;DHT22;4594;50.994;7.126;2024-01-06T12:03:22;9.30;58.60
9118;DHT22;4594;50.994;7.126;2024-01-06T12:06:01;9.30;59.50
9118;DHT22;4594;50.994;7.126;2024-01-06T12:08:28;9.30;58.60
9118;DHT22;4594;50.994;7.126;2024-01-06T12:11:04;9.30;59.50
9118;DHT22;4594;50.994;7.126;2024-01-06T12:13:31;9.30;58.70
9118;DHT22;4594;50.994;7.126;2024-01-06T12:15:57;9.30;59.90
9118;DHT22;4594;50.994;7.126;2024-01-06T12:18:23;9.30;59.60
9118;DHT22;4594;50.994;7.126;2024-01-06T12:20:50;9.30;59.60
9118;DHT22;4594;50.994;7.126;2024-01-06T12:23:27;9.30;59.50
9118;DHT22;4594;50.994;7.126;2024-01-06T12:25:54;9.20;58.50
9118;DHT22;4594;50.994;7.126;2024-01-06T12:28:20;9.30;59.40
9118;DHT22;4594;50.994;7.126;2024-01-06T12:30:46;9.20;59.20
9118;DHT22;4594;50.994;7.126;2024-01-06T12:33:12;9.20;59.20
9118;DHT22;4594;50.994;7.126;2024-01-06T12:35:39;9.20;59.30
9118;DHT22;4594;50.994;7.126;2024-01-06T12:38:05;9.20;59.20
9118;DHT22;4594;50.994;7.126;2024-01-06T12:40:36;9.20;59.30
9118;DHT22;4594;50.994;7.126;2024-01-06T12:43:06;9.20;59.10
9118;DHT22;4594;50.994;7.126;2024-01-06T12:45:32;9.10;59.20
9118;DHT22;4594;50.994;7.126;2024-01-06T12:47:57;9.10;59.20
9118;DHT22;4594;50.994;7.126;2024-01-06T12:50:23;9.10;59.20
9118;DHT22;4594;50.994;7.126;2024-01-06T12:52:49;9.20;59.20
9118;DHT22;4594;50.994;7.126;2024-01-06T12:55:14;9.10;59.20
9118;DHT22;4594;50.994;7.126;2024-01-06T12:57:42;9.10;59.20
9118;DHT22;4594;50.994;7.126;2024-01-06T13:00:08;9.10;59.00
9118;DHT22;4594;50.994;7.126;2024-01-06T13:02:37;9.10;59.10
9118;DHT22;4594;50.994;7.126;2024-01-06T13:05:03;9.00;59.00
9118;DHT22;4594;50.994;7.126;2024-01-06T13:07:29;9.00;58.90
9118;DHT22;4594;50.994;7.126;2024-01-06T13:09:56;9.00;59.00
9118;DHT22;4594;50.994;7.126;2024-01-06T13:12:21;9.00;59.00
9118;DHT22;4594;50.994;7.126;2024-01-06T13:14:49;9.00;58.90
9118;DHT22;4594;50.994;7.126;2024-01-06T13:17:16;9.00;58.90
9118;DHT22;4594;50.994;7.126;2024-01-06T13:19:42;8.90;58.90
9118;DHT22;4594;50.994;7.126;2024-01-06T13:27:19;8.90;58.90
9118;DHT22;4594;50.994;7.126;2024-01-06T13:29:44;9.90;59.50
9118;DHT22;4594;50.994;7.126;2024-01-06T13:32:10;8.70;58.60
9118;DHT22;4594;50.994;7.126;2024-01-06T13:34:37;7.80;57.80
9118;DHT22;4594;50.994;7.126;2024-01-06T13:37:03;7.40;57.60
9118;DHT22;4594;50.994;7.126;2024-01-06T13:39:29;8.90;58.90
9118;DHT22;4594;50.994;7.126;2024-01-06T13:41:55;9.80;59.50
9118;DHT22;4594;50.994;7.126;2024-01-06T13:44:21;8.80;58.80
9118;DHT22;4594;50.994;7.126;2024-01-06T13:46:48;8.80;58.80
9118;DHT22;4594;50.994;7.126;2024-01-06T13:49:16;9.30;59.20
9118;DHT22;4594;50.994;7.126;2024-01-06T13:51:43;8.80;58.80
9118;DHT22;4594;50.994;7.126;2024-01-06T13:54:09;8.80;58.80
9118;DHT22;4594;50.994;7.126;2024-01-06T13:56:36;8.80;58.80
9118;DHT22;4594;50.994;7.126;2024-01-06T13:59:02;8.80;58.70
9118;DHT22;4594;50.994;7.126;2024-01-06T14:01:29;8.80;58.70
9118;DHT22;4594;50.994;7.126;2024-01-06T14:03:55;8.80;58.60
9118;DHT22;4594;50.994;7.126;2024-01-06T14:06:29;8.70;58.60
9118;DHT22;4594;50.994;7.126;2024-01-06T14:08:59;8.70;57.90
9118;DHT22;4594;50.994;7.126;2024-01-06T14:11:28;8.70;58.60
9118;DHT22;4594;50.994;7.126;2024-01-06T14:13:57;8.70;58.20
9118;DHT22;4594;50.994;7.126;2024-01-06T14:16:23;8.70;58.60
9118;DHT22;4594;50.994;7.126;2024-01-06T14:18:49;9.90;59.60
9118;DHT22;4594;50.994;7.126;2024-01-06T14:21:14;8.70;58.60
9118;DHT22;4594;50.994;7.126;2024-01-06T14:23:43;8.70;58.50
9118;DHT22;4594;50.994;7.126;2024-01-06T14:26:09;8.60;58.20
9118;DHT22;4594;50.994;7.126;2024-01-06T14:28:38;8.60;58.20
9118;DHT22;4594;50.994;7.126;2024-01-06T14:31:04;8.60;58.30
9118;DHT22;4594;50.994;7.126;2024-01-06T14:33:30;8.60;58.30
9118;DHT22;4594;50.994;7.126;2024-01-06T14:35:56;8.60;58.20
9118;DHT22;4594;50.994;7.126;2024-01-06T14:38:22;8.60;58.30
9118;DHT22;4594;50.994;7.126;2024-01-06T14:40:48;8.50;58.20
9118;DHT22;4594;50.994;7.126;2024-01-06T14:48:40;8.50;58.20
9118;DHT22;4594;50.994;7.126;2024-01-06T15:01:00;8.30;58.70
9118;DHT22;4594;50.994;7.126;2024-01-06T15:03:25;9.10;59.40
9118;DHT22;4594;50.994;7.126;2024-01-06T15:05:51;8.40;58.80
9118;DHT22;4594;50.994;7.126;2024-01-06T15:08:16;8.40;58.70
9118;DHT22;4594;50.994;7.126;2024-01-06T15:10:42;8.30;58.60
9118;DHT22;4594;50.994;7.126;2024-01-06T15:13:08;8.30;58.60
9118;DHT22;4594;50.994;7.126;2024-01-06T15:15:34;8.30;58.60
9118;DHT22;4594;50.994;7.126;2024-01-06T15:17:59;8.30;58.50
9118;DHT22;4594;50.994;7.126;2024-01-06T15:20:25;8.30;58.50
9118;DHT22;4594;50.994;7.126;2024-01-06T15:22:51;8.30;58.50
9118;DHT22;4594;50.994;7.126;2024-01-06T15:25:16;8.30;58.40
9118;DHT22;4594;50.994;7.126;2024-01-06T15:27:43;8.30;58.40
9118;DHT22;4594;50.994;7.126;2024-01-06T15:30:09;8.30;58.40
9118;DHT22;4594;50.994;7.126;2024-01-06T15:32:35;8.20;58.20
9118;DHT22;4594;50.994;7.126;2024-01-06T15:35:02;8.20;58.20
9118;DHT22;4594;50.994;7.126;2024-01-06T15:37:30;8.20;58.20
9118;DHT22;4594;50.994;7.126;2024-01-06T15:39:57;8.20;58.10
9118;DHT22;4594;50.994;7.126;2024-01-06T15:42:23;8.20;58.20
9118;DHT22;4594;50.994;7.126;2024-01-06T15:44:48;8.20;58.20
9118;DHT22;4594;50.994;7.126;2024-01-06T15:47:14;8.20;58.30
9118;DHT22;4594;50.994;7.126;2024-01-06T15:49:40;8.20;58.30
9118;DHT22;4594;50.994;7.126;2024-01-06T15:52:05;8.20;58.30
9118;DHT22;4594;50.994;7.126;2024-01-06T15:54:35;8.10;58.20
9118;DHT22;4594;50.994;7.126;2024-01-06T15:57:01;8.10;57.80
9118;DHT22;4594;50.994;7.126;2024-01-06T15:59:27;8.10;58.00
9118;DHT22;4594;50.994;7.126;2024-01-06T16:01:54;8.10;58.00
9118;DHT22;4594;50.994;7.126;2024-01-06T16:04:20;8.10;58.10
9118;DHT22;4594;50.994;7.126;2024-01-06T16:06:46;8.10;58.10
9118;DHT22;4594;50.994;7.126;2024-01-06T16:09:12;8.00;58.00
9118;DHT22;4594;50.994;7.126;2024-01-06T16:11:38;8.00;58.00
9118;DHT22;4594;50.994;7.126;2024-01-06T16:14:05;8.00;58.00
9118;DHT22;4594;50.994;7.126;2024-01-06T16:16:31;8.00;58.00
9118;DHT22;4594;50.994;7.126;2024-01-06T16:18:56;8.00;58.00
9118;DHT22;4594;50.994;7.126;2024-01-06T16:21:23;7.90;58.00
9118;DHT22;4594;50.994;7.126;2024-01-06T16:23:52;8.60;58.30
9118;DHT22;4594;50.994;7.126;2024-01-06T16:26:19;7.90;57.50
9118;DHT22;4594;50.994;7.126;2024-01-06T16:28:45;7.90;57.80
9118;DHT22;4594;50.994;7.126;2024-01-06T16:31:11;7.90;57.80
9118;DHT22;4594;50.994;7.126;2024-01-06T16:33:37;7.90;58.00